sensor_id;sensor_type;location;lat;lon;timestamp;P1;durP1;ratioP1;P2;durP2;ratioP2
78824;SDS011;68176;45.554;10.220;2024-03-22T00:01:48;4.60;;;3.40;;
78824;SDS011;68176;45.554;10.220;2024-03-22T00:04:16;8.40;;;6.20;;
78824;SDS011;68176;45.554;10.220;2024-03-22T00:06:46;10.20;;;6.13;;
78824;SDS011;68176;45.554;10.220;2024-03-22T00:09:16;7.45;;;5.72;;
78824;SDS011;68176;45.554;10.220;2024-03-22T00:11:46;8.68;;;6.43;;
78824;SDS011;68176;45.554;10.220;2024-03-22T00:14:16;7.82;;;6.30;;
78824;SDS011;68176;45.554;10.220;2024-03-22T00:16:46;12.02;;;7.15;;
78824;SDS011;68176;45.554;10.220;2024-03-22T00:19:16;9.07;;;6.30;;
78824;SDS011;68176;45.554;10.220;2024-03-22T00:21:46;8.40;;;6.38;;
78824;SDS011;68176;45.554;10.220;2024-03-22T00:24:16;9.77;;;6.15;;
78824;SDS011;68176;45.554;10.220;2024-03-22T00:26:46;9.55;;;6.30;;
78824;SDS011;68176;45.554;10.220;2024-03-22T00:29:16;10.13;;;7.25;;
78824;SDS011;68176;45.554;10.220;2024-03-22T00:31:46;8.52;;;6.88;;
78824;SDS011;68176;45.554;10.220;2024-03-22T00:36:46;8.10;;;6.47;;
78824;SDS011;68176;45.554;10.220;2024-03-22T00:39:16;8.40;;;6.50;;
78824;SDS011;68176;45.554;10.220;2024-03-22T00:41:46;8.70;;;6.65;;
78824;SDS011;68176;45.554;10.220;2024-03-22T00:44:16;8.25;;;6.32;;
78824;SDS011;68176;45.554;10.220;2024-03-22T00:46:46;8.82;;;6.38;;
78824;SDS011;68176;45.554;10.220;2024-03-22T00:49:16;9.70;;;6.55;;
78824;SDS011;68176;45.554;10.220;2024-03-22T00:51:46;9.35;;;7.00;;
78824;SDS011;68176;45.554;10.220;2024-03-22T00:54:16;9.52;;;6.72;;
78824;SDS011;68176;45.554;10.220;2024-03-22T00:56:46;8.85;;;6.18;;
78824;SDS011;68176;45.554;10.220;2024-03-22T00:59:16;8.25;;;6.22;;
78824;SDS011;68176;45.554;10.220;2024-03-22T01:01:46;7.35;;;5.72;;
78824;SDS011;68176;45.554;10.220;2024-03-22T01:06:46;8.38;;;5.43;;
78824;SDS011;68176;45.554;10.220;2024-03-22T01:09:16;7.25;;;6.05;;
78824;SDS011;68176;45.554;10.220;2024-03-22T01:11:46;8.30;;;6.53;;
78824;SDS011;68176;45.554;10.220;2024-03-22T01:14:16;8.77;;;6.10;;
78824;SDS011;68176;45.554;10.220;2024-03-22T01:16:46;8.73;;;6.82;;
78824;SDS011;68176;45.554;10.220;2024-03-22T01:19:16;7.70;;;5.93;;
78824;SDS011;68176;45.554;10.220;2024-03-22T01:21:46;7.13;;;5.40;;
78824;SDS011;68176;45.554;10.220;2024-03-22T01:24:16;7.50;;;5.85;;
78824;SDS011;68176;45.554;10.220;2024-03-22T01:26:46;8.77;;;6.32;;
78824;SDS011;68176;45.554;10.220;2024-03-22T01:29:16;10.50;;;6.45;;
78824;SDS011;68176;45.554;10.220;2024-03-22T01:31:47;7.90;;;5.80;;
78824;SDS011;68176;45.554;10.220;2024-03-22T01:34:16;9.23;;;7.03;;
78824;SDS011;68176;45.554;10.220;2024-03-22T01:36:47;8.68;;;6.45;;
78824;SDS011;68176;45.554;10.220;2024-03-22T01:39:16;8.20;;;6.30;;
78824;SDS011;68176;45.554;10.220;2024-03-22T01:41:47;8.05;;;5.50;;
78824;SDS011;68176;45.554;10.220;2024-03-22T01:44:17;9.68;;;6.40;;
78824;SDS011;68176;45.554;10.220;2024-03-22T01:46:46;8.43;;;6.55;;
78824;SDS011;68176;45.554;10.220;2024-03-22T01:49:16;8.63;;;6.25;;
78824;SDS011;68176;45.554;10.220;2024-03-22T01:51:46;7.70;;;5.78;;
78824;SDS011;68176;45.554;10.220;2024-03-22T01:54:17;10.43;;;7.40;;
78824;SDS011;68176;45.554;10.220;2024-03-22T01:56:47;9.02;;;6.57;;
78824;SDS011;68176;45.554;10.220;2024-03-22T01:59:16;9.35;;;6.10;;
78824;SDS011;68176;45.554;10.220;2024-03-22T02:01:47;8.30;;;6.28;;
78824;SDS011;68176;45.554;10.220;2024-03-22T02:04:17;9.93;;;6.28;;
78824;SDS011;68176;45.554;10.220;2024-03-22T02:06:47;8.73;;;6.10;;
78824;SDS011;68176;45.554;10.220;2024-03-22T02:09:17;8.63;;;6.00;;
78824;SDS011;68176;45.554;10.220;2024-03-22T02:11:47;7.88;;;6.18;;
78824;SDS011;68176;45.554;10.220;2024-03-22T02:14:17;7.43;;;6.53;;
78824;SDS011;68176;45.554;10.220;2024-03-22T02:16:47;8.48;;;6.43;;
78824;SDS011;68176;45.554;10.220;2024-03-22T02:19:17;9.93;;;6.88;;
78824;SDS011;68176;45.554;10.220;2024-03-22T02:21:47;8.98;;;6.82;;
78824;SDS011;68176;45.554;10.220;2024-03-22T02:24:16;9.07;;;6.30;;
78824;SDS011;68176;45.554;10.220;2024-03-22T02:26:47;7.72;;;6.07;;
78824;SDS011;68176;45.554;10.220;2024-03-22T02:29:17;8.85;;;6.97;;
78824;SDS011;68176;45.554;10.220;2024-03-22T02:31:47;7.60;;;5.93;;
78824;SDS011;68176;45.554;10.220;2024-03-22T02:34:17;10.48;;;7.03;;
78824;SDS011;68176;45.554;10.220;2024-03-22T02:36:47;10.20;;;6.78;;
78824;SDS011;68176;45.554;10.220;2024-03-22T02:39:17;8.70;;;6.25;;
78824;SDS011;68176;45.554;10.220;2024-03-22T02:41:47;8.90;;;7.38;;
78824;SDS011;68176;45.554;10.220;2024-03-22T02:44:17;9.88;;;6.78;;
78824;SDS011;68176;45.554;10.220;2024-03-22T02:46:47;10.38;;;7.88;;
78824;SDS011;68176;45.554;10.220;2024-03-22T02:49:17;8.10;;;6.20;;
78824;SDS011;68176;45.554;10.220;2024-03-22T02:51:47;8.50;;;6.55;;
78824;SDS011;68176;45.554;10.220;2024-03-22T02:54:17;8.27;;;6.05;;
78824;SDS011;68176;45.554;10.220;2024-03-22T02:56:47;10.45;;;6.82;;
78824;SDS011;68176;45.554;10.220;2024-03-22T02:59:17;9.60;;;6.95;;
78824;SDS011;68176;45.554;10.220;2024-03-22T03:04:17;9.77;;;5.82;;
78824;SDS011;68176;45.554;10.220;2024-03-22T03:06:47;10.75;;;6.63;;
78824;SDS011;68176;45.554;10.220;2024-03-22T03:09:17;9.07;;;5.82;;
78824;SDS011;68176;45.554;10.220;2024-03-22T03:11:47;9.32;;;7.78;;
78824;SDS011;68176;45.554;10.220;2024-03-22T03:14:17;8.15;;;5.90;;
78824;SDS011;68176;45.554;10.220;2024-03-22T03:16:47;9.85;;;7.18;;
78824;SDS011;68176;45.554;10.220;2024-03-22T03:19:17;9.45;;;6.82;;
78824;SDS011;68176;45.554;10.220;2024-03-22T03:21:47;9.60;;;6.78;;
78824;SDS011;68176;45.554;10.220;2024-03-22T03:24:17;9.85;;;6.78;;
78824;SDS011;68176;45.554;10.220;2024-03-22T03:26:47;9.05;;;6.75;;
78824;SDS011;68176;45.554;10.220;2024-03-22T03:29:17;10.02;;;7.15;;
78824;SDS011;68176;45.554;10.220;2024-03-22T03:31:47;8.73;;;6.32;;
78824;SDS011;68176;45.554;10.220;2024-03-22T03:34:17;9.43;;;6.85;;
78824;SDS011;68176;45.554;10.220;2024-03-22T03:36:47;9.57;;;6.43;;
78824;SDS011;68176;45.554;10.220;2024-03-22T03:39:17;7.93;;;5.93;;
78824;SDS011;68176;45.554;10.220;2024-03-22T03:41:47;10.52;;;6.80;;
78824;SDS011;68176;45.554;10.220;2024-03-22T03:44:17;10.18;;;6.55;;
78824;SDS011;68176;45.554;10.220;2024-03-22T03:46:47;8.73;;;6.45;;
78824;SDS011;68176;45.554;10.220;2024-03-22T03:49:17;9.93;;;8.90;;
78824;SDS011;68176;45.554;10.220;2024-03-22T03:51:47;11.25;;;7.93;;
78824;SDS011;68176;45.554;10.220;2024-03-22T03:54:17;8.98;;;6.78;;
78824;SDS011;68176;45.554;10.220;2024-03-22T03:56:47;9.75;;;7.15;;
78824;SDS011;68176;45.554;10.220;2024-03-22T03:59:17;9.40;;;6.82;;
78824;SDS011;68176;45.554;10.220;2024-03-22T04:01:47;9.00;;;6.22;;
78824;SDS011;68176;45.554;10.220;2024-03-22T04:04:17;9.75;;;6.63;;
78824;SDS011;68176;45.554;10.220;2024-03-22T04:06:47;10.43;;;7.82;;
78824;SDS011;68176;45.554;10.220;2024-03-22T04:09:17;9.77;;;6.85;;
78824;SDS011;68176;45.554;10.220;2024-03-22T04:11:47;8.85;;;7.05;;
78824;SDS011;68176;45.554;10.220;2024-03-22T04:14:17;8.73;;;7.05;;
78824;SDS011;68176;45.554;10.220;2024-03-22T04:16:47;9.40;;;7.38;;
78824;SDS011;68176;45.554;10.220;2024-03-22T04:19:17;10.80;;;8.65;;
78824;SDS011;68176;45.554;10.220;2024-03-22T04:21:49;9.52;;;6.90;;
78824;SDS011;68176;45.554;10.220;2024-03-22T04:24:17;9.40;;;6.40;;
78824;SDS011;68176;45.554;10.220;2024-03-22T04:26:47;9.35;;;7.00;;
78824;SDS011;68176;45.554;10.220;2024-03-22T04:29:23;9.80;;;6.65;;
78824;SDS011;68176;45.554;10.220;2024-03-22T04:31:49;5.80;;;4.20;;
78824;SDS011;68176;45.554;10.220;2024-03-22T04:34:17;10.02;;;6.85;;
78824;SDS011;68176;45.554;10.220;2024-03-22T04:36:47;9.20;;;6.70;;
78824;SDS011;68176;45.554;10.220;2024-03-22T04:39:22;9.93;;;6.65;;
78824;SDS011;68176;45.554;10.220;2024-03-22T04:41:49;7.30;;;4.90;;
78824;SDS011;68176;45.554;10.220;2024-03-22T04:44:17;10.23;;;6.00;;
78824;SDS011;68176;45.554;10.220;2024-03-22T04:46:47;10.18;;;7.00;;
78824;SDS011;68176;45.554;10.220;2024-03-22T04:49:17;8.30;;;6.32;;
78824;SDS011;68176;45.554;10.220;2024-03-22T04:51:47;9.52;;;6.55;;
78824;SDS011;68176;45.554;10.220;2024-03-22T04:54:17;9.20;;;6.32;;
78824;SDS011;68176;45.554;10.220;2024-03-22T04:56:47;8.82;;;6.45;;
78824;SDS011;68176;45.554;10.220;2024-03-22T04:59:17;8.85;;;6.45;;
78824;SDS011;68176;45.554;10.220;2024-03-22T05:01:47;8.45;;;6.20;;
78824;SDS011;68176;45.554;10.220;2024-03-22T05:04:18;8.65;;;6.30;;
78824;SDS011;68176;45.554;10.220;2024-03-22T05:06:48;9.38;;;6.38;;
78824;SDS011;68176;45.554;10.220;2024-03-22T05:09:17;8.93;;;6.82;;
78824;SDS011;68176;45.554;10.220;2024-03-22T05:11:48;10.13;;;6.75;;
78824;SDS011;68176;45.554;10.220;2024-03-22T05:14:18;9.57;;;6.72;;
78824;SDS011;68176;45.554;10.220;2024-03-22T05:16:47;9.40;;;6.63;;
78824;SDS011;68176;45.554;10.220;2024-03-22T05:19:18;9.52;;;6.65;;
78824;SDS011;68176;45.554;10.220;2024-03-22T05:21:48;8.48;;;6.10;;
78824;SDS011;68176;45.554;10.220;2024-03-22T05:24:18;8.77;;;6.45;;
78824;SDS011;68176;45.554;10.220;2024-03-22T05:26:48;10.30;;;6.88;;
78824;SDS011;68176;45.554;10.220;2024-03-22T05:29:18;9.30;;;6.22;;
78824;SDS011;68176;45.554;10.220;2024-03-22T05:31:48;10.40;;;7.35;;
78824;SDS011;68176;45.554;10.220;2024-03-22T05:34:18;9.27;;;6.07;;
78824;SDS011;68176;45.554;10.220;2024-03-22T05:36:48;9.88;;;6.53;;
78824;SDS011;68176;45.554;10.220;2024-03-22T05:39:18;8.32;;;5.65;;
78824;SDS011;68176;45.554;10.220;2024-03-22T05:41:48;8.98;;;6.60;;
78824;SDS011;68176;45.554;10.220;2024-03-22T05:44:18;8.70;;;7.05;;
78824;SDS011;68176;45.554;10.220;2024-03-22T05:46:48;9.00;;;6.60;;
78824;SDS011;68176;45.554;10.220;2024-03-22T05:49:18;7.53;;;5.70;;
78824;SDS011;68176;45.554;10.220;2024-03-22T05:51:48;9.40;;;6.85;;
78824;SDS011;68176;45.554;10.220;2024-03-22T05:54:18;8.85;;;6.32;;
78824;SDS011;68176;45.554;10.220;2024-03-22T05:56:48;7.53;;;5.55;;
78824;SDS011;68176;45.554;10.220;2024-03-22T05:59:18;8.38;;;6.18;;
78824;SDS011;68176;45.554;10.220;2024-03-22T06:01:48;8.55;;;6.35;;
78824;SDS011;68176;45.554;10.220;2024-03-22T06:06:48;7.72;;;6.22;;
78824;SDS011;68176;45.554;10.220;2024-03-22T06:09:18;7.32;;;5.80;;
78824;SDS011;68176;45.554;10.220;2024-03-22T06:11:59;7.30;;;5.43;;
78824;SDS011;68176;45.554;10.220;2024-03-22T06:14:27;6.65;;;5.65;;
78824;SDS011;68176;45.554;10.220;2024-03-22T06:16:53;8.18;;;5.75;;
78824;SDS011;68176;45.554;10.220;2024-03-22T06:19:23;8.48;;;6.07;;
78824;SDS011;68176;45.554;10.220;2024-03-22T06:21:53;8.52;;;5.80;;
78824;SDS011;68176;45.554;10.220;2024-03-22T06:24:23;10.00;;;6.85;;
78824;SDS011;68176;45.554;10.220;2024-03-22T06:26:53;8.05;;;5.63;;
78824;SDS011;68176;45.554;10.220;2024-03-22T06:29:23;9.20;;;6.15;;
78824;SDS011;68176;45.554;10.220;2024-03-22T06:31:53;9.57;;;6.40;;
78824;SDS011;68176;45.554;10.220;2024-03-22T06:34:23;6.88;;;5.10;;
78824;SDS011;68176;45.554;10.220;2024-03-22T06:36:53;8.88;;;6.28;;
78824;SDS011;68176;45.554;10.220;2024-03-22T06:39:23;8.48;;;5.53;;
78824;SDS011;68176;45.554;10.220;2024-03-22T06:41:53;7.38;;;6.15;;
78824;SDS011;68176;45.554;10.220;2024-03-22T06:44:23;7.03;;;5.32;;
78824;SDS011;68176;45.554;10.220;2024-03-22T06:46:53;7.88;;;6.20;;
78824;SDS011;68176;45.554;10.220;2024-03-22T06:49:23;7.53;;;5.38;;
78824;SDS011;68176;45.554;10.220;2024-03-22T06:51:53;7.38;;;5.50;;
78824;SDS011;68176;45.554;10.220;2024-03-22T06:54:23;7.85;;;6.20;;
78824;SDS011;68176;45.554;10.220;2024-03-22T06:56:53;6.65;;;4.95;;
78824;SDS011;68176;45.554;10.220;2024-03-22T06:59:23;8.90;;;6.38;;
78824;SDS011;68176;45.554;10.220;2024-03-22T07:01:53;9.18;;;5.75;;
78824;SDS011;68176;45.554;10.220;2024-03-22T07:04:23;7.60;;;5.38;;
78824;SDS011;68176;45.554;10.220;2024-03-22T07:06:53;8.43;;;5.68;;
78824;SDS011;68176;45.554;10.220;2024-03-22T07:09:23;8.57;;;5.55;;
78824;SDS011;68176;45.554;10.220;2024-03-22T07:11:53;6.55;;;5.43;;
78824;SDS011;68176;45.554;10.220;2024-03-22T07:14:23;8.00;;;6.25;;
78824;SDS011;68176;45.554;10.220;2024-03-22T07:16:53;8.02;;;5.70;;
78824;SDS011;68176;45.554;10.220;2024-03-22T07:21:53;5.18;;;4.38;;
78824;SDS011;68176;45.554;10.220;2024-03-22T07:24:23;7.40;;;5.18;;
78824;SDS011;68176;45.554;10.220;2024-03-22T07:26:53;8.38;;;4.93;;
78824;SDS011;68176;45.554;10.220;2024-03-22T07:31:53;6.63;;;4.75;;
78824;SDS011;68176;45.554;10.220;2024-03-22T07:34:23;6.07;;;4.35;;
78824;SDS011;68176;45.554;10.220;2024-03-22T07:36:53;7.18;;;5.95;;
78824;SDS011;68176;45.554;10.220;2024-03-22T07:39:23;6.13;;;4.63;;
78824;SDS011;68176;45.554;10.220;2024-03-22T07:41:53;6.63;;;5.07;;
78824;SDS011;68176;45.554;10.220;2024-03-22T07:44:23;7.45;;;5.07;;
78824;SDS011;68176;45.554;10.220;2024-03-22T07:46:53;5.93;;;4.47;;
78824;SDS011;68176;45.554;10.220;2024-03-22T07:49:23;7.25;;;5.10;;
78824;SDS011;68176;45.554;10.220;2024-03-22T07:51:53;6.28;;;4.53;;
78824;SDS011;68176;45.554;10.220;2024-03-22T07:56:53;7.65;;;5.00;;
78824;SDS011;68176;45.554;10.220;2024-03-22T07:59:23;7.38;;;4.57;;
78824;SDS011;68176;45.554;10.220;2024-03-22T08:01:53;6.95;;;4.90;;
78824;SDS011;68176;45.554;10.220;2024-03-22T08:04:23;6.30;;;4.60;;
78824;SDS011;68176;45.554;10.220;2024-03-22T08:06:53;8.15;;;5.05;;
78824;SDS011;68176;45.554;10.220;2024-03-22T08:09:23;6.65;;;4.60;;
78824;SDS011;68176;45.554;10.220;2024-03-22T08:11:53;6.68;;;4.88;;
78824;SDS011;68176;45.554;10.220;2024-03-22T08:14:23;6.75;;;4.00;;
78824;SDS011;68176;45.554;10.220;2024-03-22T08:16:53;5.38;;;4.28;;
78824;SDS011;68176;45.554;10.220;2024-03-22T08:19:23;6.63;;;4.18;;
78824;SDS011;68176;45.554;10.220;2024-03-22T08:21:53;5.40;;;4.30;;
78824;SDS011;68176;45.554;10.220;2024-03-22T08:24:24;5.70;;;4.55;;
78824;SDS011;68176;45.554;10.220;2024-03-22T08:26:53;6.47;;;4.78;;
78824;SDS011;68176;45.554;10.220;2024-03-22T08:29:23;8.20;;;4.25;;
78824;SDS011;68176;45.554;10.220;2024-03-22T08:31:54;6.22;;;4.13;;
78824;SDS011;68176;45.554;10.220;2024-03-22T08:34:23;5.28;;;3.85;;
78824;SDS011;68176;45.554;10.220;2024-03-22T08:36:53;6.45;;;4.38;;
78824;SDS011;68176;45.554;10.220;2024-03-22T08:39:24;4.25;;;3.85;;
78824;SDS011;68176;45.554;10.220;2024-03-22T08:41:53;5.38;;;4.45;;
78824;SDS011;68176;45.554;10.220;2024-03-22T08:44:24;5.10;;;4.18;;
78824;SDS011;68176;45.554;10.220;2024-03-22T08:49:23;6.10;;;4.97;;
78824;SDS011;68176;45.554;10.220;2024-03-22T08:51:54;4.97;;;3.90;;
78824;SDS011;68176;45.554;10.220;2024-03-22T08:54:23;5.53;;;4.38;;
78824;SDS011;68176;45.554;10.220;2024-03-22T08:56:53;8.52;;;4.63;;
78824;SDS011;68176;45.554;10.220;2024-03-22T08:59:24;5.63;;;3.67;;
78824;SDS011;68176;45.554;10.220;2024-03-22T09:01:53;6.13;;;3.95;;
78824;SDS011;68176;45.554;10.220;2024-03-22T09:04:24;5.25;;;3.90;;
78824;SDS011;68176;45.554;10.220;2024-03-22T09:09:24;4.57;;;4.00;;
78824;SDS011;68176;45.554;10.220;2024-03-22T09:11:54;4.80;;;3.55;;
78824;SDS011;68176;45.554;10.220;2024-03-22T09:14:24;5.97;;;4.28;;
78824;SDS011;68176;45.554;10.220;2024-03-22T09:16:54;7.00;;;4.28;;
78824;SDS011;68176;45.554;10.220;2024-03-22T09:19:24;5.47;;;4.00;;
78824;SDS011;68176;45.554;10.220;2024-03-22T09:21:54;5.05;;;3.83;;
78824;SDS011;68176;45.554;10.220;2024-03-22T09:24:24;5.75;;;4.00;;
78824;SDS011;68176;45.554;10.220;2024-03-22T09:26:54;5.70;;;4.32;;
78824;SDS011;68176;45.554;10.220;2024-03-22T09:29:24;5.55;;;4.10;;
78824;SDS011;68176;45.554;10.220;2024-03-22T09:31:54;4.80;;;3.72;;
78824;SDS011;68176;45.554;10.220;2024-03-22T09:34:24;5.15;;;4.20;;
78824;SDS011;68176;45.554;10.220;2024-03-22T09:36:54;6.13;;;3.92;;
78824;SDS011;68176;45.554;10.220;2024-03-22T09:39:24;4.97;;;3.92;;
78824;SDS011;68176;45.554;10.220;2024-03-22T09:41:54;4.60;;;3.95;;
78824;SDS011;68176;45.554;10.220;2024-03-22T09:44:24;4.68;;;3.85;;
78824;SDS011;68176;45.554;10.220;2024-03-22T09:46:54;5.13;;;4.10;;
78824;SDS011;68176;45.554;10.220;2024-03-22T09:49:24;5.95;;;3.92;;
78824;SDS011;68176;45.554;10.220;2024-03-22T09:51:54;6.07;;;4.13;;
78824;SDS011;68176;45.554;10.220;2024-03-22T09:54:24;4.82;;;3.42;;
78824;SDS011;68176;45.554;10.220;2024-03-22T09:56:54;5.00;;;3.75;;
78824;SDS011;68176;45.554;10.220;2024-03-22T09:59:24;4.97;;;3.47;;
78824;SDS011;68176;45.554;10.220;2024-03-22T10:01:54;4.70;;;3.88;;
78824;SDS011;68176;45.554;10.220;2024-03-22T10:04:24;4.43;;;3.60;;
78824;SDS011;68176;45.554;10.220;2024-03-22T10:06:54;5.07;;;4.07;;
78824;SDS011;68176;45.554;10.220;2024-03-22T10:09:30;4.60;;;3.70;;
78824;SDS011;68176;45.554;10.220;2024-03-22T10:11:56;3.70;;;3.00;;
78824;SDS011;68176;45.554;10.220;2024-03-22T10:14:24;6.35;;;4.43;;
78824;SDS011;68176;45.554;10.220;2024-03-22T10:16:54;5.60;;;4.05;;
78824;SDS011;68176;45.554;10.220;2024-03-22T10:19:24;6.03;;;4.45;;
78824;SDS011;68176;45.554;10.220;2024-03-22T10:22:01;6.75;;;3.83;;
78824;SDS011;68176;45.554;10.220;2024-03-22T10:24:27;3.35;;;2.35;;
78824;SDS011;68176;45.554;10.220;2024-03-22T10:26:54;4.28;;;2.88;;
78824;SDS011;68176;45.554;10.220;2024-03-22T10:29:24;4.93;;;4.10;;
78824;SDS011;68176;45.554;10.220;2024-03-22T10:31:55;5.50;;;3.53;;
78824;SDS011;68176;45.554;10.220;2024-03-22T10:34:24;6.10;;;4.65;;
78824;SDS011;68176;45.554;10.220;2024-03-22T10:36:57;4.88;;;3.78;;
78824;SDS011;68176;45.554;10.220;2024-03-22T10:39:25;5.50;;;3.72;;
78824;SDS011;68176;45.554;10.220;2024-03-22T10:41:54;4.82;;;3.53;;
78824;SDS011;68176;45.554;10.220;2024-03-22T10:44:24;6.13;;;4.13;;
78824;SDS011;68176;45.554;10.220;2024-03-22T10:46:54;5.10;;;3.90;;
78824;SDS011;68176;45.554;10.220;2024-03-22T10:49:24;6.53;;;3.80;;
78824;SDS011;68176;45.554;10.220;2024-03-22T10:51:56;5.25;;;4.57;;
78824;SDS011;68176;45.554;10.220;2024-03-22T10:54:26;5.63;;;4.10;;
78824;SDS011;68176;45.554;10.220;2024-03-22T10:56:56;2.20;;;1.80;;
78824;SDS011;68176;45.554;10.220;2024-03-22T10:59:24;5.10;;;4.03;;
78824;SDS011;68176;45.554;10.220;2024-03-22T11:02:02;4.97;;;3.45;;
78824;SDS011;68176;45.554;10.220;2024-03-22T11:04:29;5.70;;;4.30;;
78824;SDS011;68176;45.554;10.220;2024-03-22T11:06:56;4.55;;;3.05;;
78824;SDS011;68176;45.554;10.220;2024-03-22T11:09:27;4.65;;;3.78;;
78824;SDS011;68176;45.554;10.220;2024-03-22T11:11:55;9.75;;;6.82;;
78824;SDS011;68176;45.554;10.220;2024-03-22T11:14:24;11.35;;;6.55;;
78824;SDS011;68176;45.554;10.220;2024-03-22T11:16:54;12.38;;;6.53;;
78824;SDS011;68176;45.554;10.220;2024-03-22T11:19:24;8.90;;;6.32;;
78824;SDS011;68176;45.554;10.220;2024-03-22T11:21:54;11.48;;;6.47;;
78824;SDS011;68176;45.554;10.220;2024-03-22T11:26:55;12.18;;;6.20;;
78824;SDS011;68176;45.554;10.220;2024-03-22T11:29:24;10.65;;;6.15;;
78824;SDS011;68176;45.554;10.220;2024-03-22T11:31:54;7.60;;;5.13;;
78824;SDS011;68176;45.554;10.220;2024-03-22T11:34:24;7.25;;;5.32;;
78824;SDS011;68176;45.554;10.220;2024-03-22T11:36:54;8.23;;;5.72;;
78824;SDS011;68176;45.554;10.220;2024-03-22T11:39:24;8.70;;;4.75;;
78824;SDS011;68176;45.554;10.220;2024-03-22T11:41:54;9.05;;;5.28;;
78824;SDS011;68176;45.554;10.220;2024-03-22T11:44:24;6.28;;;4.82;;
78824;SDS011;68176;45.554;10.220;2024-03-22T11:46:54;7.65;;;5.05;;
78824;SDS011;68176;45.554;10.220;2024-03-22T11:51:57;7.43;;;4.88;;
78824;SDS011;68176;45.554;10.220;2024-03-22T11:54:24;11.00;;;3.72;;
78824;SDS011;68176;45.554;10.220;2024-03-22T11:56:55;7.43;;;4.50;;
78824;SDS011;68176;45.554;10.220;2024-03-22T11:59:24;6.05;;;4.13;;
78824;SDS011;68176;45.554;10.220;2024-03-22T12:01:54;6.88;;;4.68;;
78824;SDS011;68176;45.554;10.220;2024-03-22T12:04:25;5.50;;;4.38;;
78824;SDS011;68176;45.554;10.220;2024-03-22T12:06:55;8.60;;;4.18;;
78824;SDS011;68176;45.554;10.220;2024-03-22T12:09:24;6.18;;;3.90;;
78824;SDS011;68176;45.554;10.220;2024-03-22T12:11:55;7.57;;;4.53;;
78824;SDS011;68176;45.554;10.220;2024-03-22T12:14:24;6.65;;;4.45;;
78824;SDS011;68176;45.554;10.220;2024-03-22T12:16:55;5.43;;;3.80;;
78824;SDS011;68176;45.554;10.220;2024-03-22T12:19:25;6.93;;;3.78;;
78824;SDS011;68176;45.554;10.220;2024-03-22T12:21:55;5.43;;;3.47;;
78824;SDS011;68176;45.554;10.220;2024-03-22T12:24:25;5.00;;;3.85;;
78824;SDS011;68176;45.554;10.220;2024-03-22T12:26:55;6.40;;;3.45;;
78824;SDS011;68176;45.554;10.220;2024-03-22T12:29:25;6.38;;;3.92;;
78824;SDS011;68176;45.554;10.220;2024-03-22T12:31:55;6.65;;;3.25;;
78824;SDS011;68176;45.554;10.220;2024-03-22T12:34:25;4.53;;;3.03;;
78824;SDS011;68176;45.554;10.220;2024-03-22T12:36:55;5.90;;;3.38;;
78824;SDS011;68176;45.554;10.220;2024-03-22T12:39:25;7.15;;;3.50;;
78824;SDS011;68176;45.554;10.220;2024-03-22T12:41:55;4.72;;;3.40;;
78824;SDS011;68176;45.554;10.220;2024-03-22T12:46:55;8.43;;;3.58;;
78824;SDS011;68176;45.554;10.220;2024-03-22T12:49:25;5.60;;;3.25;;
78824;SDS011;68176;45.554;10.220;2024-03-22T12:51:55;5.93;;;3.75;;
78824;SDS011;68176;45.554;10.220;2024-03-22T12:54:25;5.63;;;3.50;;
78824;SDS011;68176;45.554;10.220;2024-03-22T12:56:55;4.50;;;2.95;;
78824;SDS011;68176;45.554;10.220;2024-03-22T12:59:25;6.47;;;3.75;;
78824;SDS011;68176;45.554;10.220;2024-03-22T13:01:55;4.80;;;3.25;;
78824;SDS011;68176;45.554;10.220;2024-03-22T13:04:25;4.13;;;2.95;;
78824;SDS011;68176;45.554;10.220;2024-03-22T13:06:55;5.20;;;3.30;;
78824;SDS011;68176;45.554;10.220;2024-03-22T13:09:25;5.38;;;2.85;;
78824;SDS011;68176;45.554;10.220;2024-03-22T13:11:55;5.43;;;2.83;;
78824;SDS011;68176;45.554;10.220;2024-03-22T13:14:25;4.40;;;3.15;;
78824;SDS011;68176;45.554;10.220;2024-03-22T13:19:25;4.32;;;2.88;;
78824;SDS011;68176;45.554;10.220;2024-03-22T13:21:55;4.53;;;2.60;;
78824;SDS011;68176;45.554;10.220;2024-03-22T13:24:25;4.00;;;2.85;;
78824;SDS011;68176;45.554;10.220;2024-03-22T13:26:55;4.63;;;2.88;;
78824;SDS011;68176;45.554;10.220;2024-03-22T13:29:25;4.28;;;2.78;;
78824;SDS011;68176;45.554;10.220;2024-03-22T13:31:55;4.07;;;2.78;;
78824;SDS011;68176;45.554;10.220;2024-03-22T13:34:25;4.47;;;2.88;;
78824;SDS011;68176;45.554;10.220;2024-03-22T13:36:55;3.47;;;2.40;;
78824;SDS011;68176;45.554;10.220;2024-03-22T13:39:25;6.28;;;3.05;;
78824;SDS011;68176;45.554;10.220;2024-03-22T13:41:55;3.55;;;2.53;;
78824;SDS011;68176;45.554;10.220;2024-03-22T13:44:25;5.45;;;2.47;;
78824;SDS011;68176;45.554;10.220;2024-03-22T13:46:55;4.68;;;2.85;;
78824;SDS011;68176;45.554;10.220;2024-03-22T13:49:25;3.50;;;2.45;;
78824;SDS011;68176;45.554;10.220;2024-03-22T13:51:57;3.38;;;2.58;;
78824;SDS011;68176;45.554;10.220;2024-03-22T13:54:25;3.20;;;2.55;;
78824;SDS011;68176;45.554;10.220;2024-03-22T13:56:55;3.30;;;2.30;;
78824;SDS011;68176;45.554;10.220;2024-03-22T13:59:25;4.70;;;2.53;;
78824;SDS011;68176;45.554;10.220;2024-03-22T14:01:58;3.70;;;2.58;;
78824;SDS011;68176;45.554;10.220;2024-03-22T14:04:25;3.63;;;2.45;;
78824;SDS011;68176;45.554;10.220;2024-03-22T14:06:55;4.20;;;2.30;;
78824;SDS011;68176;45.554;10.220;2024-03-22T14:09:25;3.65;;;2.50;;
78824;SDS011;68176;45.554;10.220;2024-03-22T14:11:55;3.58;;;2.40;;
78824;SDS011;68176;45.554;10.220;2024-03-22T14:14:25;3.92;;;2.80;;
78824;SDS011;68176;45.554;10.220;2024-03-22T14:16:55;3.75;;;2.38;;
78824;SDS011;68176;45.554;10.220;2024-03-22T14:19:25;4.65;;;2.22;;
78824;SDS011;68176;45.554;10.220;2024-03-22T14:21:55;4.30;;;2.33;;
78824;SDS011;68176;45.554;10.220;2024-03-22T14:24:25;4.05;;;2.80;;
78824;SDS011;68176;45.554;10.220;2024-03-22T14:26:55;3.17;;;2.30;;
78824;SDS011;68176;45.554;10.220;2024-03-22T14:29:25;3.85;;;2.75;;
78824;SDS011;68176;45.554;10.220;2024-03-22T14:31:55;3.05;;;2.15;;
78824;SDS011;68176;45.554;10.220;2024-03-22T14:34:25;3.13;;;1.98;;
78824;SDS011;68176;45.554;10.220;2024-03-22T14:36:55;5.63;;;2.50;;
78824;SDS011;68176;45.554;10.220;2024-03-22T14:39:25;3.88;;;2.80;;
78824;SDS011;68176;45.554;10.220;2024-03-22T14:41:55;4.10;;;2.47;;
78824;SDS011;68176;45.554;10.220;2024-03-22T14:44:25;4.47;;;1.88;;
78824;SDS011;68176;45.554;10.220;2024-03-22T14:46:55;3.55;;;2.60;;
78824;SDS011;68176;45.554;10.220;2024-03-22T14:49:25;3.92;;;2.53;;
78824;SDS011;68176;45.554;10.220;2024-03-22T14:51:55;3.38;;;2.58;;
78824;SDS011;68176;45.554;10.220;2024-03-22T14:54:25;3.67;;;2.55;;
78824;SDS011;68176;45.554;10.220;2024-03-22T14:56:55;3.30;;;2.25;;
78824;SDS011;68176;45.554;10.220;2024-03-22T14:59:29;5.88;;;2.97;;
78824;SDS011;68176;45.554;10.220;2024-03-22T15:01:55;3.30;;;2.40;;
78824;SDS011;68176;45.554;10.220;2024-03-22T15:04:25;3.60;;;2.75;;
78824;SDS011;68176;45.554;10.220;2024-03-22T15:06:55;3.42;;;2.22;;
78824;SDS011;68176;45.554;10.220;2024-03-22T15:09:25;3.38;;;2.55;;
78824;SDS011;68176;45.554;10.220;2024-03-22T15:11:55;3.13;;;2.25;;
78824;SDS011;68176;45.554;10.220;2024-03-22T15:14:26;3.88;;;2.78;;
78824;SDS011;68176;45.554;10.220;2024-03-22T15:16:56;2.97;;;2.20;;
78824;SDS011;68176;45.554;10.220;2024-03-22T15:19:26;4.45;;;2.88;;
78824;SDS011;68176;45.554;10.220;2024-03-22T15:21:55;3.13;;;2.50;;